Welcome to Northern Hawkes Bay. New Zealand.
PWS Header
      nz Flag



Hit Counter


W3C Valid W3C Valid logo


    Wairoa

Select any of the Stations below to visit their websites.










Historic Data from Weather Underground
Select the location of interest below. Wairoa is the default. Please have patience, this Data is slow to load in.
Northern Hawkes Bay Historical Data
Daily Summary for July 15, 2017 Units:  English    Metric   Both
« Previous Day
Next Day »
Daily Weekly Monthly Yearly Custom
  High: Low: Average:
Temperature: 54.9 °F 39.7 °F 48.4 °F
Dew Point: 47.7 °F 38.7 °F 43.9 °F
Humidity: 98% 65% 85%
Wind Speed: 23.5mph 0mph 7.7mph
Wind Gust: 30.4mph - -
Wind- - WSW
Pressure: 30.2 in 30 in -
Precipitation: 0.57 in    
Historical Graphs
 
 
Tabular Data for July 15, 2017
Time Temperature Dew Point Pressure Wind Wind Speed Wind Gust Humidity Rainfall Rate (Hourly) solar
00:04 49.6 °F 47.5 °F 30 in SSW 14.5 mph 22.8 mph 92% 0.02 in 0 W/m2
00:09 49.3 °F 47.7 °F 30 in SW 13.6 mph 22.8 mph 94% 0.02 in 0 W/m2
00:14 48.9 °F 47.3 °F 30 in WSW 16.8 mph 23.5 mph 94% 0.05 in 0 W/m2
00:17 48.9 °F 47.7 °F 30 in WSW 19.7 mph 23.5 mph 95% 0.06 in 0 W/m2
00:22 48.9 °F 47.7 °F 30 in SW 13.6 mph 23.5 mph 95% 0.07 in 0 W/m2
00:27 48.6 °F 47.1 °F 30 in SW 12.1 mph 26.6 mph 95% 0.08 in 0 W/m2
00:32 48.6 °F 47.5 °F 30 in SW 16.8 mph 26.6 mph 96% 0.11 in 0 W/m2
00:37 48.4 °F 47.3 °F 30 in SW 19.7 mph 30.4 mph 96% 0.13 in 0 W/m2
00:42 48 °F 47.1 °F 30 in WSW 15.2 mph 30.4 mph 97% 0.13 in 0 W/m2
00:47 47.7 °F 46.9 °F 30 in SW 19.7 mph 30.4 mph 97% 0.14 in 0 W/m2
00:52 47.8 °F 47.3 °F 30 in SW 15.9 mph 25.9 mph 98% 0.14 in 0 W/m2
00:57 48 °F 47.5 °F 30 in WSW 15.2 mph 26.6 mph 98% 0.15 in 0 W/m2
01:02 47.7 °F 46.9 °F 30 in WSW 20.6 mph 28.9 mph 97% 0.15 in 0 W/m2
01:07 47.7 °F 46.9 °F 30 in WSW 19.7 mph 28.9 mph 97% 0.18 in 0 W/m2
01:12 47.7 °F 46.9 °F 30 in SW 9.8 mph 26.6 mph 97% 0.17 in 0 W/m2
01:17 47.7 °F 46.9 °F 30 in SW 16.8 mph 26.6 mph 97% 0.15 in 0 W/m2
01:22 47.8 °F 46.9 °F 30 in SW 16.8 mph 29.8 mph 97% 0.15 in 0 W/m2
01:27 47.7 °F 46.6 °F 30 in SW 15.2 mph 29.8 mph 96% 0.14 in 0 W/m2
01:32 48 °F 46.9 °F 30.1 in SW 13.6 mph 27.3 mph 96% 0.13 in 0 W/m2
01:37 47.8 °F 46.8 °F 30.1 in WSW 15.2 mph 27.3 mph 96% 0.11 in 0 W/m2
01:42 47.7 °F 46.6 °F 30.1 in WSW 13 mph 25.1 mph 96% 0.12 in 0 W/m2
01:47 47.5 °F 46.4 °F 30.1 in WSW 15.2 mph 26.6 mph 96% 0.12 in 0 W/m2
01:52 48 °F 46.9 °F 30.1 in SW 15.9 mph 28.9 mph 96% 0.12 in 0 W/m2
01:57 48 °F 46.9 °F 30.1 in SW 14.5 mph 28.9 mph 96% 0.12 in 0 W/m2
02:02 47.8 °F 46.8 °F 30.1 in SW 17.4 mph 26.6 mph 96% 0.12 in 0 W/m2
02:07 47.5 °F 46.4 °F 30.1 in SW 13.6 mph 26.6 mph 96% 0.11 in 0 W/m2
02:12 47.5 °F 46.4 °F 30.1 in SW 23.5 mph 28.2 mph 96% 0.12 in 0 W/m2
02:17 47.7 °F 46.9 °F 30.1 in SW 20.6 mph 28.2 mph 97% 0.13 in 0 W/m2
02:22 47.5 °F 46.8 °F 30.1 in SW 15.9 mph 28.2 mph 97% 0.14 in 0 W/m2
02:27 47.7 °F 46.9 °F 30.1 in SW 18.3 mph 28.2 mph 97% 0.15 in 0 W/m2
02:32 47.8 °F 46.9 °F 30.1 in SW 18.3 mph 28.2 mph 97% 0.15 in 0 W/m2
02:37 47.7 °F 46.9 °F 30.1 in SW 11.4 mph 26.6 mph 97% 0.17 in 0 W/m2
02:42 47.7 °F 46.6 °F 30.1 in SSW 13.6 mph 26.6 mph 96% 0.15 in 0 W/m2
02:47 47.8 °F 46.8 °F 30.1 in SW 15.2 mph 25.1 mph 96% 0.15 in 0 W/m2
02:52 47.8 °F 46.8 °F 30.1 in SSW 9.8 mph 27.3 mph 96% 0.17 in 0 W/m2
02:57 47.8 °F 46.8 °F 30.1 in SW 11.4 mph 27.3 mph 96% 0.17 in 0 W/m2
03:02 47.7 °F 46.6 °F 30.1 in SSW 13.6 mph 24.4 mph 96% 0.17 in 0 W/m2
03:06 47.7 °F 46.2 °F 30.1 in SSW 17.4 mph 23.5 mph 95% 0.17 in 0 W/m2
03:12 47.5 °F 46.4 °F 30.1 in SW 13 mph 24.4 mph 96% 0.15 in 0 W/m2
03:17 47.5 °F 46.4 °F 30.1 in SW 10.7 mph 24.4 mph 96% 0.15 in 0 W/m2
03:22 47.5 °F 46.4 °F 30.1 in SSW 14.5 mph 22.1 mph 96% 0.17 in 0 W/m2
03:27 47.7 °F 46.6 °F 30.1 in SSW 14.5 mph 22.1 mph 96% 0.15 in 0 W/m2
03:32 47.8 °F 46.8 °F 30.1 in SSW 19.7 mph 29.8 mph 96% 0.15 in 0 W/m2
03:37 47.8 °F 46.6 °F 30.1 in SW 11.4 mph 29.8 mph 95% 0.14 in 0 W/m2
03:42 47.7 °F 46.2 °F 30.1 in SW 19 mph 29.8 mph 95% 0.15 in 0 W/m2
03:46 47.7 °F 46.2 °F 30.1 in SW 13 mph 25.1 mph 95% 0.14 in 0 W/m2
03:57 48.2 °F 46.2 °F 30.1 in SW 13 mph 21.3 mph 93% 0.12 in 0 W/m2
04:02 48.2 °F 46.2 °F 30.1 in SW 9.2 mph 25.1 mph 93% 0.11 in 0 W/m2
04:07 48.4 °F 46.6 °F 30.1 in SW 17.4 mph 25.1 mph 93% 0.09 in 0 W/m2
04:12 48.4 °F 46.2 °F 30.1 in SW 10.7 mph 23.5 mph 92% 0.08 in 0 W/m2
04:16 48.4 °F 46.2 °F 30.1 in SW 9.8 mph 22.1 mph 92% 0.07 in 0 W/m2
04:21 48.4 °F 46.2 °F 30.1 in SW 15.2 mph 19.7 mph 92% 0.04 in 0 W/m2
04:27 48.4 °F 46.2 °F 30.1 in SW 13 mph 19.7 mph 92% 0.04 in 0 W/m2
04:32 48.7 °F 46.2 °F 30.1 in SW 14.5 mph 19.7 mph 91% 0.04 in 0 W/m2
04:37 48.7 °F 45.9 °F 30.1 in SW 14.5 mph 19.7 mph 90% 0.04 in 0 W/m2
04:42 48.7 °F 45.9 °F 30.1 in WSW 6.9 mph 19.7 mph 90% 0.01 in 0 W/m2
04:46 48.6 °F 45.9 °F 30.1 in SW 10.7 mph 17.4 mph 90% 0.01 in 0 W/m2
04:52 48.4 °F 45.3 °F 30.1 in SW 13 mph 21.3 mph 89% 0.01 in 0 W/m2
04:56 48.4 °F 45.3 °F 30.1 in SW 9.8 mph 21.3 mph 89% 0.01 in 0 W/m2
05:01 48.2 °F 44.8 °F 30.1 in SW 10.7 mph 21.3 mph 88% 0.01 in 0 W/m2
05:07 48.4 °F 45 °F 30.1 in WSW 7.6 mph 19.7 mph 88% 0.01 in 0 W/m2
05:11 48.2 °F 44.8 °F 30.1 in WSW 8.3 mph 22.1 mph 88% 0.01 in 0 W/m2
05:17 48.2 °F 45.1 °F 30.1 in WSW 11.4 mph 22.1 mph 89% 0.01 in 0 W/m2
05:21 48 °F 45.1 °F 30.1 in WSW 8.3 mph 21.3 mph 90% 0.01 in 0 W/m2
05:26 47.7 °F 45 °F 30.1 in WSW 11.4 mph 16.8 mph 90% 0.01 in 0 W/m2
05:31 47.8 °F 45.3 °F 30.1 in WSW 10.7 mph 18.3 mph 91% 0 in 0 W/m2
05:37 47.8 °F 45.3 °F 30.1 in West 10.7 mph 18.3 mph 91% 0 in 0 W/m2
05:42 47.8 °F 45.3 °F 30.1 in West 11.4 mph 19 mph 91% 0 in 0 W/m2
05:47 47.8 °F 45.3 °F 30.1 in West 6.9 mph 19.7 mph 91% 0 in 0 W/m2
05:51 47.7 °F 45.1 °F 30.1 in West 10.7 mph 21.3 mph 91% 0 in 0 W/m2
05:56 47.5 °F 45 °F 30.1 in WSW 8.3 mph 21.3 mph 91% 0 in 0 W/m2
06:01 47.5 °F 45 °F 30.1 in WSW 13.6 mph 18.3 mph 91% 0 in 0 W/m2
06:06 47.5 °F 45 °F 30.1 in WSW 13.6 mph 17.4 mph 91% 0 in 0 W/m2
06:11 47.7 °F 45.1 °F 30.1 in WSW 11.4 mph 19 mph 91% 0 in 0 W/m2
06:17 47.7 °F 45 °F 30.1 in WSW 9.8 mph 19 mph 90% 0 in 0 W/m2
06:22 47.7 °F 45 °F 30.1 in WSW 8.3 mph 20.6 mph 90% 0 in 0 W/m2
06:26 47.5 °F 44.8 °F 30.1 in SW 9.2 mph 20.6 mph 90% 0 in 0 W/m2
06:32 47.5 °F 44.8 °F 30.1 in SW 9.8 mph 19.7 mph 90% 0 in 0 W/m2
06:36 47.5 °F 44.8 °F 30.1 in WSW 9.8 mph 19.7 mph 90% 0 in 0 W/m2
06:40 47.5 °F 44.8 °F 30.1 in WSW 7.6 mph 19.7 mph 90% 0 in 0 W/m2
06:45 47.3 °F 44.4 °F 30.1 in WSW 12.1 mph 22.1 mph 90% 0 in 0 W/m2
06:50 47.3 °F 44.4 °F 30.1 in WSW 12.1 mph 22.8 mph 90% 0 in 0 W/m2
07:08 47.3 °F 44.4 °F 30.1 in WSW 9.8 mph 19.7 mph 90% 0 in 0 W/m2
07:13 47.5 °F 44.8 °F 30.1 in SW 8.3 mph 19.7 mph 90% 0 in 0 W/m2
07:19 47.7 °F 44.6 °F 30.1 in SW 13.6 mph 19.7 mph 89% 0 in 0 W/m2
07:23 48 °F 44.2 °F 30.1 in SW 13.6 mph 20.6 mph 87% 0 in 0 W/m2
07:28 48.2 °F 44.2 °F 30.1 in SW 10.7 mph 21.3 mph 86% 0 in 0 W/m2
07:33 48.6 °F 44.1 °F 30.1 in SW 9.8 mph 21.3 mph 84% 0 in 1 W/m2
07:39 48.7 °F 43.9 °F 30.1 in SW 10.7 mph 20.6 mph 83% 0 in 1 W/m2
07:44 48.9 °F 44.2 °F 30.1 in SW 10.7 mph 18.3 mph 84% 0 in 3 W/m2
07:48 48.7 °F 44.4 °F 30.1 in SW 10.7 mph 20.6 mph 85% 0 in 7 W/m2
08:10 48.9 °F 44.6 °F 30.1 in WSW 10.7 mph 15.9 mph 85% 0 in 19 W/m2
08:15 48.9 °F 44.6 °F 30.2 in SW 10.7 mph 15.9 mph 85% 0 in 25 W/m2
08:20 48.9 °F 44.6 °F 30.2 in SW 12.1 mph 18.3 mph 85% 0 in 33 W/m2
08:25 48.9 °F 44.6 °F 30.2 in SW 8.3 mph 19.7 mph 85% 0 in 31 W/m2
08:30 48.9 °F 44.6 °F 30.2 in SW 9.2 mph 19.7 mph 85% 0 in 38 W/m2
08:35 49.1 °F 44.8 °F 30.2 in SW 9.8 mph 18.3 mph 85% 0 in 30 W/m2
08:40 48.9 °F 44.2 °F 30.2 in SW 8.3 mph 15.2 mph 84% 0 in 32 W/m2
08:45 48.9 °F 44.2 °F 30.2 in SW 8.3 mph 15.9 mph 84% 0 in 89 W/m2
08:50 48.9 °F 44.6 °F 30.2 in WSW 9.2 mph 15.9 mph 85% 0 in 57 W/m2
08:55 49.1 °F 44.4 °F 30.2 in WSW 9.8 mph 16.8 mph 84% 0 in 61 W/m2
09:00 49.3 °F 44.8 °F 30.2 in WSW 9.8 mph 20.6 mph 84% 0 in 131 W/m2
09:05 49.6 °F 45.3 °F 30.2 in WSW 9.2 mph 20.6 mph 85% 0 in 55 W/m2
09:10 49.5 °F 45.1 °F 30.2 in WSW 13.6 mph 18.3 mph 85% 0 in 41 W/m2
09:15 48.7 °F 44.1 °F 30.2 in WSW 7.6 mph 18.3 mph 84% 0 in 45 W/m2
09:20 48.4 °F 43.9 °F 30.2 in West 2.2 mph 18.3 mph 84% 0 in 57 W/m2
09:25 48.2 °F 43.9 °F 30.2 in West 9.2 mph 13 mph 85% 0 in 53 W/m2
09:30 48.4 °F 44.1 °F 30.2 in WSW 8.3 mph 14.5 mph 85% 0 in 56 W/m2
09:35 48.4 °F 44.1 °F 30.2 in WSW 3.8 mph 14.5 mph 85% 0 in 40 W/m2
09:40 48.4 °F 43.9 °F 30.2 in West 5.4 mph 14.5 mph 84% 0 in 91 W/m2
09:45 48.6 °F 44.1 °F 30.2 in West 7.6 mph 18.3 mph 84% 0 in 93 W/m2
09:50 48.6 °F 43.3 °F 30.2 in West 10.7 mph 20.6 mph 82% 0 in 99 W/m2
09:55 48.7 °F 43.5 °F 30.2 in West 5.4 mph 20.6 mph 82% 0 in 89 W/m2
10:00 48.7 °F 43.2 °F 30.2 in WNW 7.6 mph 16.8 mph 81% 0 in 105 W/m2
10:05 49.6 °F 44.4 °F 30.2 in WSW 9.8 mph 16.8 mph 82% 0 in 113 W/m2
10:10 49.6 °F 44.1 °F 30.2 in WSW 6.9 mph 13.6 mph 81% 0 in 130 W/m2
10:15 49.8 °F 43.9 °F 30.2 in WSW 5.4 mph 13.6 mph 80% 0 in 110 W/m2
10:20 49.6 °F 43.7 °F 30.2 in WSW 4.5 mph 12.1 mph 80% 0 in 87 W/m2
10:25 49.3 °F 43.7 °F 30.2 in WSW 3.8 mph 12.1 mph 81% 0 in 101 W/m2
10:30 49.1 °F 43.9 °F 30.2 in WSW 3.8 mph 12.1 mph 82% 0 in 96 W/m2
10:35 50.5 °F 45 °F 30.2 in WSW 9.8 mph 13.6 mph 81% 0 in 164 W/m2
10:40 50.9 °F 44.2 °F 30.2 in SW 12.1 mph 21.3 mph 78% 0 in 109 W/m2
10:45 50.4 °F 43.9 °F 30.2 in SW 15.2 mph 21.3 mph 78% 0 in 114 W/m2
10:50 50 °F 43.3 °F 30.2 in West 9.8 mph 21.3 mph 78% 0 in 103 W/m2
10:55 49.8 °F 43.5 °F 30.2 in West 6 mph 21.3 mph 79% 0 in 118 W/m2
11:00 50.4 °F 44.1 °F 30.2 in WSW 14.5 mph 19 mph 79% 0 in 180 W/m2
11:05 51.3 °F 44.2 °F 30.2 in SW 11.4 mph 17.4 mph 77% 0 in 173 W/m2
11:10 51.4 °F 44.4 °F 30.2 in WSW 11.4 mph 19 mph 77% 0 in 196 W/m2
11:15 51.3 °F 44.2 °F 30.2 in SW 15.2 mph 19.7 mph 77% 0 in 136 W/m2
11:20 50.7 °F 43.9 °F 30.2 in SW 13.6 mph 19.7 mph 77% 0 in 101 W/m2
11:25 50.2 °F 43.3 °F 30.2 in SW 6.9 mph 18.3 mph 77% 0 in 85 W/m2
11:30 50.2 °F 43.5 °F 30.2 in SW 8.3 mph 16.8 mph 78% 0 in 105 W/m2
11:35 50.2 °F 43.9 °F 30.2 in SW 10.7 mph 18.3 mph 79% 0 in 164 W/m2
11:40 50.5 °F 43.5 °F 30.2 in SW 12.1 mph 18.3 mph 77% 0 in 145 W/m2
11:45 50.5 °F 43.5 °F 30.2 in WSW 8.3 mph 17.4 mph 77% 0 in 122 W/m2
11:50 50.5 °F 43.5 °F 30.2 in SW 11.4 mph 17.4 mph 77% 0 in 116 W/m2
11:55 50.4 °F 43.2 °F 30.2 in SW 6.9 mph 15.2 mph 76% 0 in 119 W/m2
12:00 50.5 °F 43.5 °F 30.2 in SW 10.7 mph 15.9 mph 77% 0 in 159 W/m2
12:05 50.9 °F 43.5 °F 30.2 in SW 9.8 mph 15.9 mph 76% 0 in 158 W/m2
12:10 50.9 °F 43.5 °F 30.2 in SW 13 mph 15.9 mph 76% 0 in 123 W/m2
12:15 50.7 °F 43.2 °F 30.2 in SW 13 mph 16.8 mph 75% 0 in 137 W/m2
12:20 50.9 °F 43.3 °F 30.2 in WSW 9.2 mph 16.8 mph 75% 0 in 145 W/m2
12:25 51.1 °F 43.3 °F 30.2 in WSW 13 mph 16.8 mph 75% 0 in 165 W/m2
12:30 51.4 °F 43.9 °F 30.2 in WSW 9.2 mph 18.3 mph 75% 0 in 178 W/m2
12:50 52.5 °F 44.4 °F 30.2 in SW 9.8 mph 15.9 mph 74% 0 in 184 W/m2
12:55 52.5 °F 44.1 °F 30.2 in SW 7.6 mph 15.2 mph 73% 0 in 183 W/m2
13:00 52.3 °F 44.1 °F 30.2 in WSW 9.8 mph 14.5 mph 73% 0 in 159 W/m2
13:05 52 °F 43.5 °F 30.2 in SW 9.2 mph 14.5 mph 73% 0 in 170 W/m2
13:10 52 °F 43.5 °F 30.2 in SW 11.4 mph 13.6 mph 73% 0 in 179 W/m2
13:15 51.6 °F 44.1 °F 30.2 in WSW 7.6 mph 14.5 mph 75% 0 in 169 W/m2
13:20 51.6 °F 43.5 °F 30.2 in WSW 9.8 mph 14.5 mph 74% 0 in 148 W/m2
13:25 51.6 °F 43.5 °F 30.2 in West 6 mph 13 mph 74% 0 in 148 W/m2
13:30 51.6 °F 43.5 °F 30.2 in WSW 6.9 mph 13 mph 74% 0 in 152 W/m2
13:35 51.6 °F 43.5 °F 30.2 in SW 9.8 mph 14.5 mph 74% 0 in 133 W/m2
13:40 52 °F 43.5 °F 30.2 in SW 9.8 mph 14.5 mph 73% 0 in 88 W/m2
13:45 52.2 °F 43.3 °F 30.2 in WSW 10.7 mph 14.5 mph 72% 0 in 115 W/m2
13:50 52.3 °F 43.5 °F 30.2 in WSW 10.7 mph 13.6 mph 72% 0 in 95 W/m2
13:55 53.1 °F 44.2 °F 30.2 in SW 6 mph 13.6 mph 72% 0 in 116 W/m2
14:00 52.5 °F 43 °F 30.2 in SW 6.9 mph 13 mph 70% 0 in 109 W/m2
14:05 52 °F 43.2 °F 30.2 in SW 7.6 mph 13 mph 72% 0 in 116 W/m2
14:10 52.5 °F 43.9 °F 30.2 in SW 7.6 mph 13 mph 72% 0 in 124 W/m2
14:15 53.4 °F 43.9 °F 30.2 in WSW 5.4 mph 13.6 mph 70% 0 in 109 W/m2
14:20 53.8 °F 43.2 °F 30.2 in West 8.3 mph 13.6 mph 67% 0 in 240 W/m2
14:25 54.1 °F 43 °F 30.2 in West 5.4 mph 13.6 mph 66% 0 in 174 W/m2
14:30 54 °F 43.3 °F 30.2 in WSW 5.4 mph 13 mph 67% 0 in 206 W/m2
14:35 54 °F 43 °F 30.2 in WSW 5.4 mph 9.8 mph 66% 0 in 51 W/m2
14:40 52.3 °F 42.1 °F 30.2 in WSW 4.5 mph 12.1 mph 68% 0 in 81 W/m2
14:45 52.5 °F 43.3 °F 30.2 in West 3.8 mph 12.1 mph 71% 0 in 202 W/m2
14:50 54.3 °F 44.4 °F 30.2 in WSW 5.4 mph 12.1 mph 69% 0 in 191 W/m2
14:55 54.7 °F 43.9 °F 30.2 in WSW 2.2 mph 8.3 mph 67% 0 in 183 W/m2
15:00 54.7 °F 43.9 °F 30.2 in West 6 mph 8.3 mph 67% 0 in 177 W/m2
15:05 54.1 °F 42.6 °F 30.2 in WSW 4.5 mph 12.1 mph 65% 0 in 163 W/m2
15:10 54.1 °F 43 °F 30.2 in WSW 5.4 mph 12.1 mph 66% 0 in 153 W/m2
15:15 54.5 °F 43.3 °F 30.2 in SW 7.6 mph 9.8 mph 66% 0 in 145 W/m2
15:20 54.3 °F 42.8 °F 30.2 in SW 5.4 mph 10.7 mph 65% 0 in 138 W/m2
15:25 54.3 °F 42.8 °F 30.2 in SW 6 mph 10.7 mph 65% 0 in 131 W/m2
15:30 54.3 °F 43.2 °F 30.2 in SW 4.5 mph 10.7 mph 66% 0 in 122 W/m2
15:35 54.9 °F 43.7 °F 30.2 in SW 5.4 mph 10.7 mph 66% 0 in 114 W/m2
15:40 54.5 °F 43 °F 30.2 in SW 6 mph 9.8 mph 65% 0 in 105 W/m2
15:45 54.1 °F 43 °F 30.2 in WSW 3.8 mph 11.4 mph 66% 0 in 93 W/m2
15:50 54.1 °F 42.6 °F 30.2 in SW 6 mph 11.4 mph 65% 0 in 81 W/m2
15:55 54.1 °F 43 °F 30.2 in SW 6 mph 10.7 mph 66% 0 in 73 W/m2
16:00 54 °F 43 °F 30.2 in WSW 3.8 mph 9.2 mph 66% 0 in 65 W/m2
16:05 54.3 °F 43.2 °F 30.2 in WSW 3.8 mph 9.2 mph 66% 0 in 57 W/m2
16:10 54.1 °F 43 °F 30.2 in SW 3.8 mph 6 mph 66% 0 in 50 W/m2
16:15 54.1 °F 43 °F 30.2 in SW 3.1 mph 6 mph 66% 0 in 44 W/m2
16:20 54.1 °F 43.3 °F 30.2 in SW 3.1 mph 6 mph 67% 0 in 38 W/m2
16:25 54.1 °F 43.3 °F 30.2 in WSW 1.6 mph 5.4 mph 67% 0 in 32 W/m2
16:30 53.8 °F 42.3 °F 30.2 in WSW 3.8 mph 7.6 mph 65% 0 in 28 W/m2
16:35 53.1 °F 42.4 °F 30.2 in WSW 3.1 mph 7.6 mph 67% 0 in 24 W/m2
16:40 52.9 °F 42.6 °F 30.2 in WSW 2.2 mph 7.6 mph 68% 0 in 20 W/m2
16:45 52.7 °F 42.8 °F 30.2 in SW 2.2 mph 5.4 mph 69% 0 in 17 W/m2
16:50 52.3 °F 42.4 °F 30.2 in SW 2.2 mph 5.4 mph 69% 0 in 12 W/m2
16:55 51.6 °F 42.4 °F 30.2 in WSW 1.6 mph 5.4 mph 71% 0 in 6 W/m2
17:00 50.9 °F 42.6 °F 30.2 in SW 2.2 mph 5.4 mph 73% 0 in 2 W/m2
17:05 50.2 °F 42.3 °F 30.2 in SW 0.7 mph 4.5 mph 74% 0 in 0 W/m2
17:10 49.8 °F 42.3 °F 30.2 in Calm   4.5 mph 75% 0 in 0 W/m2
17:15 49.3 °F 42.1 °F 30.2 in West 0.7 mph 3.1 mph 76% 0 in 0 W/m2
17:20 49.1 °F 41.9 °F 30.2 in Calm   2.2 mph 76% 0 in 0 W/m2
17:25 48.7 °F 41.5 °F 30.2 in NW 0.7 mph 2.2 mph 76% 0 in 0 W/m2
17:30 48.6 °F 41.4 °F 30.2 in WNW 0.7 mph 2.2 mph 76% 0 in 0 W/m2
17:31 48.6 °F 41.4 °F 30.2 in WNW 0.7 mph 2.2 mph 76% 0 in 0 W/m2
17:36 48.4 °F 41.5 °F 30.2 in Calm   2.2 mph 77% 0 in 0 W/m2
17:41 48.4 °F 41.7 °F 30.2 in WNW 2.2 mph 3.1 mph 78% 0 in 0 W/m2
17:46 48.6 °F 42.4 °F 30.2 in Calm   3.1 mph 79% 0 in 0 W/m2
17:51 48.4 °F 42.3 °F 30.2 in WNW 0.7 mph 3.1 mph 79% 0 in 0 W/m2
17:56 47.8 °F 42.1 °F 30.2 in North 0.7 mph 1.6 mph 80% 0 in 0 W/m2
18:01 47.3 °F 42.1 °F 30.2 in NNE 1.6 mph 3.8 mph 82% 0 in 0 W/m2
18:06 46.9 °F 42.4 °F 30.2 in North 1.6 mph 3.8 mph 84% 0 in 0 W/m2
18:11 46.8 °F 42.4 °F 30.2 in North 1.6 mph 3.1 mph 85% 0 in 0 W/m2
18:16 46.6 °F 42.6 °F 30.2 in North 1.6 mph 3.1 mph 86% 0 in 0 W/m2
18:37 46.2 °F 43 °F 30.2 in North 1.6 mph 3.1 mph 88% 0 in 0 W/m2
18:42 46.2 °F 43.2 °F 30.2 in North 2.2 mph 3.8 mph 89% 0 in 0 W/m2
18:47 46.2 °F 43.2 °F 30.2 in North 1.6 mph 3.8 mph 89% 0 in 0 W/m2
18:52 46.2 °F 43.2 °F 30.2 in North 1.6 mph 3.1 mph 89% 0 in 0 W/m2
18:57 46.2 °F 43.5 °F 30.2 in Calm   3.1 mph 90% 0 in 0 W/m2
19:02 46 °F 43 °F 30.2 in Calm   1.6 mph 89% 0 in 0 W/m2
19:07 46 °F 43.3 °F 30.2 in NNW 1.6 mph 2.2 mph 90% 0 in 0 W/m2
19:12 46.2 °F 43.5 °F 30.2 in NNW 1.6 mph 3.1 mph 90% 0 in 0 W/m2
19:17 46.2 °F 43.5 °F 30.2 in North 1.6 mph 3.1 mph 90% 0 in 0 W/m2
19:22 46.2 °F 43.5 °F 30.2 in Calm   3.1 mph 90% 0 in 0 W/m2
19:27 46.2 °F 43.5 °F 30.2 in Calm   3.1 mph 90% 0 in 0 W/m2
19:32 46.2 °F 43.5 °F 30.2 in NNW 2.2 mph 3.1 mph 90% 0 in 0 W/m2
19:37 46 °F 43.3 °F 30.2 in NNW 1.6 mph 3.8 mph 90% 0 in 0 W/m2
19:42 46 °F 43.3 °F 30.2 in North 0.7 mph 3.8 mph 90% 0 in 0 W/m2
19:47 46 °F 43.3 °F 30.2 in NNW 1.6 mph 3.8 mph 90% 0 in 0 W/m2
19:52 46 °F 43.5 °F 30.2 in North 1.6 mph 3.8 mph 91% 0 in 0 W/m2
19:57 46 °F 43.5 °F 30.2 in North 0.7 mph 3.8 mph 91% 0 in 0 W/m2
20:02 46 °F 43.5 °F 30.2 in North 1.6 mph 3.8 mph 91% 0 in 0 W/m2
20:07 45.9 °F 43.3 °F 30.2 in North 0.7 mph 3.1 mph 91% 0 in 0 W/m2
20:12 45.7 °F 43.2 °F 30.2 in North 1.6 mph 3.1 mph 91% 0 in 0 W/m2
20:17 45.7 °F 43.2 °F 30.2 in Calm   2.2 mph 91% 0 in 0 W/m2
20:22 45.7 °F 43.2 °F 30.2 in North 0.7 mph 3.1 mph 91% 0 in 0 W/m2
20:28 45.7 °F 43.2 °F 30.2 in North 0.7 mph 3.1 mph 91% 0 in 0 W/m2
20:33 45.7 °F 43.2 °F 30.2 in North 0.7 mph 3.1 mph 91% 0 in 0 W/m2
20:38 45.7 °F 43.5 °F 30.2 in North 1.6 mph 3.1 mph 92% 0 in 0 W/m2
20:43 45.5 °F 43.3 °F 30.2 in North 2.2 mph 3.1 mph 92% 0 in 0 W/m2
20:48 45.3 °F 43.2 °F 30.2 in NNE 0.7 mph 3.1 mph 92% 0 in 0 W/m2
20:53 45.3 °F 43.2 °F 30.2 in NNE 2.2 mph 3.8 mph 92% 0 in 0 W/m2
20:58 45.3 °F 43.2 °F 30.2 in NNW 2.2 mph 3.8 mph 92% 0 in 0 W/m2
21:03 45.1 °F 43 °F 30.2 in NNW 1.6 mph 3.8 mph 92% 0 in 0 W/m2
21:08 45.1 °F 43 °F 30.2 in NNW 3.1 mph 4.5 mph 92% 0 in 0 W/m2
21:13 45 °F 42.8 °F 30.2 in NNW 3.1 mph 5.4 mph 92% 0 in 0 W/m2
21:18 44.8 °F 42.6 °F 30.2 in North 2.2 mph 5.4 mph 92% 0 in 0 W/m2
21:23 44.6 °F 42.4 °F 30.2 in NNW 1.6 mph 3.8 mph 92% 0 in 0 W/m2
21:28 44.4 °F 42.4 °F 30.2 in NNW 1.6 mph 3.8 mph 93% 0 in 0 W/m2
21:33 44.1 °F 42.3 °F 30.2 in NNW 2.2 mph 3.8 mph 93% 0 in 0 W/m2
21:38 44.1 °F 42.3 °F 30.2 in NNW 2.2 mph 3.8 mph 93% 0 in 0 W/m2
21:43 43.9 °F 42.1 °F 30.2 in NNW 2.2 mph 3.8 mph 93% 0 in 0 W/m2
21:48 43.7 °F 41.7 °F 30.2 in NNW 3.1 mph 3.8 mph 93% 0 in 0 W/m2
21:53 43.5 °F 41.5 °F 30.2 in NW 2.2 mph 3.8 mph 93% 0 in 0 W/m2
21:58 43.3 °F 41.5 °F 30.2 in NW 2.2 mph 4.5 mph 93% 0 in 0 W/m2
22:03 43.2 °F 41.4 °F 30.2 in NW 2.2 mph 4.5 mph 93% 0 in 0 W/m2
22:08 43 °F 41.2 °F 30.2 in NW 2.2 mph 3.8 mph 93% 0 in 0 W/m2
22:13 42.8 °F 40.8 °F 30.2 in NW 2.2 mph 3.1 mph 93% 0 in 0 W/m2
22:18 42.4 °F 40.8 °F 30.2 in NNW 2.2 mph 3.8 mph 94% 0 in 0 W/m2
22:23 42.3 °F 40.6 °F 30.2 in North 2.2 mph 3.8 mph 94% 0 in 0 W/m2
22:28 41.9 °F 40.3 °F 30.2 in NNW 1.6 mph 3.8 mph 94% 0 in 0 W/m2
22:34 41.5 °F 39.9 °F 30.2 in NNW 1.6 mph 3.1 mph 94% 0 in 0 W/m2
22:40 41.4 °F 39.7 °F 30.2 in NNW 1.6 mph 3.1 mph 94% 0 in 0 W/m2
22:45 41.2 °F 39.6 °F 30.2 in NNW 1.6 mph 3.1 mph 94% 0 in 0 W/m2
22:49 40.8 °F 39.6 °F 30.2 in NNW 1.6 mph 3.1 mph 95% 0 in 0 W/m2
22:54 40.6 °F 39.6 °F 30.2 in NW 2.2 mph 3.1 mph 96% 0 in 0 W/m2
23:00 40.5 °F 39.4 °F 30.2 in NNW 2.2 mph 3.1 mph 96% 0 in 0 W/m2
23:04 40.1 °F 39 °F 30.2 in NNW 2.2 mph 3.8 mph 96% 0 in 0 W/m2
23:10 40.1 °F 39 °F 30.2 in NW 2.2 mph 3.8 mph 96% 0 in 0 W/m2
23:15 39.9 °F 38.8 °F 30.2 in NW 3.1 mph 4.5 mph 96% 0 in 0 W/m2
23:20 39.7 °F 38.7 °F 30.2 in NNW 3.1 mph 4.5 mph 96% 0 in 0 W/m2
23:24 39.7 °F 38.7 °F 30.2 in NNW 3.1 mph 4.5 mph 96% 0 in 0 W/m2
23:30 39.7 °F 39 °F 30.2 in North 0.7 mph 3.8 mph 97% 0 in 0 W/m2
23:35 39.7 °F 39 °F 30.2 in North 1.6 mph 3.1 mph 97% 0 in 0 W/m2
23:40 40.1 °F 39.4 °F 30.2 in North 2.2 mph 3.1 mph 97% 0 in 0 W/m2
23:45 39.7 °F 39 °F 30.2 in NNW 1.6 mph 3.1 mph 97% 0 in 0 W/m2
23:50 39.7 °F 39 °F 30.2 in NNW 1.6 mph 3.1 mph 97% 0 in 0 W/m2
23:55 39.7 °F 39 °F 30.2 in North 2.2 mph 3.1 mph 97% 0 in 0 W/m2
Northern Hawkes Bay. New Zealand Historic Data
Compliments of Weather Underground - 2.25 mb